Time;durP1;ratioP1;P1;durP2;ratioP2;P2;SDS_P1;SDS_P2;PMS_P1;PMS_P2;Temp;Humidity;BMP_temperature;BMP_pressure;BME280_temperature;BME280_humidity;BME280_pressure;Samples;Min_cycle;Max_cycle;Signal;HPM_P1;HPM_P2
2023/04/18 00:01:44;;;;;;;5.25;4.18;;;;;;;20.93;38.19;102965.97;5107606;28;20035;-70
2023/04/18 00:04:10;;;;;;;5.30;4.03;;;;;;;20.90;38.22;102960.09;5102545;28;20050;-70
2023/04/18 00:06:36;;;;;;;5.20;4.15;;;;;;;20.99;37.99;102968.06;5105524;27;20036;-70
2023/04/18 00:09:02;;;;;;;5.90;4.22;;;;;;;20.95;38.06;102966.66;5106632;28;20051;-70
2023/04/18 00:11:29;;;;;;;5.13;4.43;;;;;;;20.95;37.97;102969.31;5105612;28;20039;-70
2023/04/18 00:13:56;;;;;;;4.68;3.90;;;;;;;21.03;37.81;102966.00;5106888;28;20043;-70
2023/04/18 00:16:22;;;;;;;5.53;4.28;;;;;;;20.94;37.94;102969.44;5106983;27;20031;-70
2023/04/18 00:18:48;;;;;;;4.95;4.15;;;;;;;20.89;38.10;102969.03;5106237;28;20035;-71
2023/04/18 00:21:15;;;;;;;5.85;4.22;;;;;;;20.96;37.97;102967.50;5100715;28;20071;-70
2023/04/18 00:23:42;;;;;;;5.47;4.40;;;;;;;20.91;37.88;102973.19;5102168;28;20062;-70
2023/04/18 00:26:07;;;;;;;4.80;4.00;;;;;;;20.98;37.77;102968.19;5106737;27;20036;-70
2023/04/18 00:28:33;;;;;;;4.95;4.15;;;;;;;20.88;38.22;102977.94;5104639;27;20051;-70
2023/04/18 00:30:59;;;;;;;5.28;3.85;;;;;;;20.91;38.05;102967.06;5105380;28;20354;-70
2023/04/18 00:33:24;;;;;;;5.03;4.40;;;;;;;20.84;38.21;102968.59;5088731;28;20478;-70
2023/04/18 00:35:50;;;;;;;5.35;3.80;;;;;;;20.87;37.95;102977.09;5103962;28;20043;-70
2023/04/18 00:38:16;;;;;;;5.22;4.07;;;;;;;20.85;38.10;102967.63;5094831;28;20047;-70
2023/04/18 00:40:42;;;;;;;5.50;3.97;;;;;;;20.83;38.24;102970.41;5106208;28;20056;-70
2023/04/18 00:43:07;;;;;;;5.93;4.20;;;;;;;20.87;37.90;102974.44;5106486;28;20063;-70
2023/04/18 00:45:33;;;;;;;6.45;4.28;;;;;;;20.82;38.13;102968.69;5097049;28;20699;-70
2023/04/18 00:47:58;;;;;;;5.53;4.35;;;;;;;20.81;38.47;102974.97;5092705;28;20871;-70
2023/04/18 00:50:24;;;;;;;6.20;4.03;;;;;;;20.81;37.92;102969.69;5106804;27;20031;-70
2023/04/18 00:52:50;;;;;;;7.60;4.32;;;;;;;20.84;38.03;102972.09;5101374;27;20048;-70
2023/04/18 00:55:17;;;;;;;4.88;4.05;;;;;;;20.84;38.12;102971.25;5096134;28;20070;-71
2023/04/18 00:57:42;;;;;;;5.38;4.00;;;;;;;20.80;38.04;102968.00;5094597;27;20540;-70
2023/04/18 01:00:09;;;;;;;5.68;4.43;;;;;;;20.78;38.05;102970.78;5103304;28;20130;-70
2023/04/18 01:02:36;;;;;;;6.85;4.05;;;;;;;20.75;38.01;102975.50;5100063;28;20055;-70
2023/04/18 01:05:03;;;;;;;4.80;3.58;;;;;;;20.77;38.26;102966.47;5109855;27;20039;-70
2023/04/18 01:07:30;;;;;;;5.38;4.10;;;;;;;20.83;38.13;102966.91;5093307;28;20035;-70
2023/04/18 01:09:56;;;;;;;4.88;4.15;;;;;;;20.76;38.12;102970.09;5110928;27;20116;-70
2023/04/18 01:12:22;;;;;;;6.05;4.30;;;;;;;20.80;37.87;102968.84;5100354;28;20813;-70
2023/04/18 01:14:47;;;;;;;4.80;3.65;;;;;;;20.75;38.06;102965.75;5109007;27;20051;-70
2023/04/18 01:17:13;;;;;;;4.90;3.83;;;;;;;20.75;38.13;102964.94;5099887;28;20023;-70
2023/04/18 01:19:39;;;;;;;5.07;3.90;;;;;;;20.74;37.96;102960.59;5104179;28;20039;-70
2023/04/18 01:22:06;;;;;;;4.68;3.67;;;;;;;20.73;37.88;102954.47;5100926;28;20604;-70
2023/04/18 01:24:32;;;;;;;5.03;4.30;;;;;;;20.74;38.08;102957.97;5105000;27;20058;-70
2023/04/18 01:26:58;;;;;;;4.32;3.72;;;;;;;20.69;38.11;102957.53;5109967;28;20035;-70
2023/04/18 01:29:25;;;;;;;5.63;3.80;;;;;;;20.74;38.04;102957.97;5095559;28;20028;-70
2023/04/18 01:31:50;;;;;;;5.10;3.75;;;;;;;20.67;37.92;102957.66;5092191;28;21457;-71
2023/04/18 01:34:19;;;;;;;4.47;3.55;;;;;;;20.75;38.13;102956.97;5107590;28;20046;-72
2023/04/18 01:36:45;;;;;;;4.45;3.63;;;;;;;20.71;37.87;102947.63;5107938;28;20063;-70
2023/04/18 01:39:11;;;;;;;4.57;3.72;;;;;;;20.65;38.17;102962.25;5100425;28;20131;-70
2023/04/18 01:41:37;;;;;;;5.18;3.80;;;;;;;20.62;38.04;102948.44;5080217;28;20519;-70
2023/04/18 01:44:03;;;;;;;4.03;3.30;;;;;;;20.64;38.11;102957.91;5101944;27;20148;-70
2023/04/18 01:46:29;;;;;;;4.10;3.60;;;;;;;20.63;38.09;102950.09;5070553;28;20727;-70
2023/04/18 01:48:55;;;;;;;5.18;3.90;;;;;;;20.59;38.42;102956.63;5074056;28;20032;-70
2023/04/18 01:51:21;;;;;;;4.22;3.78;;;;;;;20.73;37.92;102966.88;5065345;28;20036;-70
2023/04/18 01:53:47;;;;;;;4.18;3.78;;;;;;;20.52;38.04;102943.94;5064415;28;20064;-70
2023/04/18 01:56:12;;;;;;;3.83;3.28;;;;;;;20.68;38.14;102961.16;5076965;28;20056;-71
2023/04/18 01:58:38;;;;;;;4.57;3.83;;;;;;;20.67;38.00;102956.84;5077475;28;20048;-70
2023/04/18 02:01:03;;;;;;;3.88;3.47;;;;;;;20.65;38.02;102953.47;5063183;28;20490;-71
2023/04/18 02:03:29;;;;;;;4.35;3.53;;;;;;;20.56;38.12;102955.09;5064586;28;20419;-70
2023/04/18 02:05:54;;;;;;;5.03;3.40;;;;;;;20.48;38.23;102928.47;5065195;28;20033;-70
2023/04/18 02:08:20;;;;;;;4.80;3.90;;;;;;;20.57;38.00;102951.47;5064563;28;20036;-70
2023/04/18 02:10:46;;;;;;;4.90;3.35;;;;;;;20.63;37.98;102958.03;5068462;28;20589;-70
2023/04/18 02:13:13;;;;;;;4.95;3.42;;;;;;;20.58;38.03;102955.81;5068143;28;20051;-70
2023/04/18 02:15:39;;;;;;;3.72;3.20;;;;;;;20.52;38.26;102961.66;5080154;28;20237;-70
2023/04/18 02:18:05;;;;;;;4.53;3.47;;;;;;;20.52;38.22;102956.34;5080379;28;20055;-70
2023/04/18 02:20:32;;;;;;;4.75;3.50;;;;;;;20.58;38.10;102962.91;5064199;28;20108;-70
2023/04/18 02:23:00;;;;;;;4.13;3.28;;;;;;;20.51;38.06;102959.97;5068641;28;20044;-70
2023/04/18 02:25:28;;;;;;;4.22;3.83;;;;;;;20.57;38.01;102959.44;5062747;28;20033;-70
2023/04/18 02:27:55;;;;;;;3.97;3.35;;;;;;;20.50;38.24;102956.47;5083391;28;20044;-71
2023/04/18 02:30:21;;;;;;;4.47;3.60;;;;;;;20.51;37.93;102949.38;5063373;28;20044;-70
2023/04/18 02:32:50;;;;;;;4.35;3.60;;;;;;;20.52;37.99;102951.88;5068738;28;20033;-71
2023/04/18 02:35:17;;;;;;;4.30;3.40;;;;;;;20.60;37.93;102963.63;5064399;28;20041;-70
2023/04/18 02:37:42;;;;;;;4.95;3.85;;;;;;;20.51;38.16;102959.97;5063178;28;20105;-70
2023/04/18 02:40:11;;;;;;;4.45;3.65;;;;;;;20.55;38.10;102963.19;5069798;28;20064;-71
2023/04/18 02:42:37;;;;;;;4.28;3.35;;;;;;;20.59;37.83;102960.13;5072455;28;20074;-70
2023/04/18 02:45:05;;;;;;;3.95;3.13;;;;;;;20.54;37.91;102961.50;5064674;28;20043;-70
2023/04/18 02:47:30;;;;;;;3.97;3.20;;;;;;;20.43;38.09;102947.38;5072071;28;20516;-70
2023/04/18 02:49:56;;;;;;;4.07;3.40;;;;;;;20.46;38.01;102954.22;5069617;28;20032;-70
2023/04/18 02:52:24;;;;;;;4.82;3.30;;;;;;;20.37;38.25;102961.13;5082570;28;20044;-70
2023/04/18 02:54:50;;;;;;;4.07;3.30;;;;;;;20.46;38.18;102956.84;5096790;28;20048;-70
2023/04/18 02:57:20;;;;;;;4.25;3.38;;;;;;;20.41;38.29;102959.06;5067544;28;20127;-71
2023/04/18 03:00:00;;;;;;;3.75;3.40;;;;;;;20.32;38.17;102941.31;5069236;28;20713;-71
2023/04/18 03:02:52;;;;;;;7.35;3.80;;;;;;;20.44;38.15;102954.34;5059669;28;20864;-71
2023/04/18 03:05:38;;;;;;;4.35;3.10;;;;;;;20.46;38.08;102957.69;5069908;28;20542;-70
2023/04/18 03:08:05;;;;;;;3.80;3.08;;;;;;;20.47;37.92;102964.69;5097116;27;20127;-70
2023/04/18 03:10:30;;;;;;;4.55;3.08;;;;;;;20.52;38.12;102965.13;5101104;27;20036;-71
2023/04/18 03:12:56;;;;;;;4.13;3.30;;;;;;;20.47;37.82;102967.34;5067560;28;20040;-70
2023/04/18 03:15:22;;;;;;;4.13;3.17;;;;;;;20.44;37.94;102962.28;5079821;28;20037;-71
2023/04/18 03:17:49;;;;;;;3.75;3.08;;;;;;;20.39;38.18;102961.81;5065304;28;20032;-70
2023/04/18 03:20:15;;;;;;;4.68;3.22;;;;;;;20.40;38.09;102963.50;5104573;28;20122;-70
2023/04/18 03:22:40;;;;;;;4.30;3.10;;;;;;;20.39;38.07;102963.63;5085973;28;20037;-70
2023/04/18 03:25:06;;;;;;;4.35;3.08;;;;;;;20.38;38.11;102973.38;5060575;28;20033;-71
2023/04/18 03:27:51;;;;;;;3.40;3.10;;;;;;;20.40;38.03;102973.25;5069032;28;20133;-71
2023/04/18 03:30:19;;;;;;;3.85;3.20;;;;;;;20.37;38.16;102970.88;5074582;28;20039;-71
2023/04/18 03:32:51;;;;;;;3.95;3.10;;;;;;;20.39;38.05;102974.22;5073632;28;20036;-71
2023/04/18 03:35:17;;;;;;;4.53;3.25;;;;;;;20.42;37.94;102976.63;5059481;28;20811;-71
2023/04/18 03:37:43;;;;;;;4.65;3.35;;;;;;;20.34;38.21;102969.31;5064473;28;20051;-70
2023/04/18 03:40:10;;;;;;;3.65;3.17;;;;;;;20.32;38.13;102975.72;5064442;28;20225;-71
2023/04/18 03:42:35;;;;;;;3.58;2.92;;;;;;;20.44;37.96;102978.16;5066397;28;20041;-71
2023/04/18 03:45:01;;;;;;;4.22;3.13;;;;;;;20.36;37.96;102980.63;5066132;28;20341;-70
2023/04/18 03:47:30;;;;;;;4.10;3.10;;;;;;;20.31;38.09;102976.69;5060152;28;20064;-71
2023/04/18 03:49:57;;;;;;;3.42;2.83;;;;;;;20.35;38.09;102976.28;5096241;28;20021;-70
2023/04/18 03:52:24;;;;;;;4.60;3.42;;;;;;;20.39;37.84;102984.81;5060678;28;20039;-70
2023/04/18 03:54:50;;;;;;;3.67;3.10;;;;;;;20.33;37.96;102982.69;5050115;28;20044;-71
2023/04/18 03:57:18;;;;;;;4.63;3.60;;;;;;;20.37;37.95;102978.81;5064873;28;20044;-70
2023/04/18 03:59:44;;;;;;;2.95;2.65;;;;;;;20.27;38.14;102981.38;5082886;28;20033;-71
2023/04/18 04:02:10;;;;;;;3.95;3.47;;;;;;;20.30;38.11;102985.59;5066380;28;20410;-71
2023/04/18 04:04:35;;;;;;;3.25;2.78;;;;;;;20.35;37.83;102984.22;5060540;28;20513;-70
2023/04/18 04:07:01;;;;;;;3.45;3.10;;;;;;;20.27;38.05;102985.84;5067756;28;20044;-70
2023/04/18 04:09:26;;;;;;;3.65;3.00;;;;;;;20.29;37.85;102990.06;5078918;28;20032;-71
2023/04/18 04:11:52;;;;;;;3.40;3.10;;;;;;;20.26;38.12;102984.16;5061306;28;20106;-70
2023/04/18 04:14:18;;;;;;;3.28;2.85;;;;;;;20.30;38.05;102991.72;5066948;28;20043;-70
2023/04/18 04:16:45;;;;;;;3.72;2.85;;;;;;;20.33;37.92;102988.81;5069782;28;20033;-70
2023/04/18 04:19:13;;;;;;;4.15;3.15;;;;;;;20.21;38.16;102984.56;5064128;28;21672;-70
2023/04/18 04:21:47;;;;;;;3.40;2.75;;;;;;;20.14;38.34;102996.63;5075218;28;20032;-71
2023/04/18 04:24:15;;;;;;;2.63;2.42;;;;;;;20.23;37.99;102995.84;5065010;28;20044;-70
2023/04/18 04:26:45;;;;;;;4.03;3.00;;;;;;;20.30;37.92;102996.19;5064189;28;20053;-71
2023/04/18 04:29:15;;;;;;;5.50;3.00;;;;;;;20.31;37.93;102995.22;5060329;28;20029;-70
2023/04/18 04:31:42;;;;;;;3.72;3.10;;;;;;;20.20;37.99;102988.19;5079246;28;20041;-71
2023/04/18 04:34:08;;;;;;;2.90;2.67;;;;;;;20.30;37.93;102998.84;5103467;27;20302;-70
2023/04/18 04:36:34;;;;;;;3.40;2.88;;;;;;;20.23;37.92;103007.28;5062913;28;20067;-71
2023/04/18 04:39:05;;;;;;;3.28;2.88;;;;;;;20.14;37.95;102994.00;5070190;28;20535;-71
2023/04/18 04:41:40;;;;;;;3.17;2.80;;;;;;;20.26;37.92;103000.88;5103673;28;20073;-70
2023/04/18 04:44:06;;;;;;;3.38;2.58;;;;;;;20.25;37.85;103006.28;5096000;28;21592;-70
2023/04/18 04:46:34;;;;;;;3.30;2.70;;;;;;;20.15;38.11;103009.72;5090695;28;20035;-70
2023/04/18 04:49:03;;;;;;;;;;;;;;;20.18;38.06;103006.81;5106503;28;20032;-71
2023/04/18 04:51:29;;;;;;;3.05;2.70;;;;;;;20.19;38.07;103002.38;5108073;28;19942;-71
2023/04/18 04:53:55;;;;;;;3.10;2.80;;;;;;;20.19;37.98;102995.28;5100078;27;20039;-70
2023/04/18 04:56:21;;;;;;;3.50;2.88;;;;;;;20.23;37.92;103009.06;5097188;28;20040;-71
2023/04/18 04:58:48;;;;;;;2.90;2.60;;;;;;;20.10;38.21;103003.97;5102809;27;20042;-70
2023/04/18 05:01:19;;;;;;;4.25;2.70;;;;;;;20.23;37.97;103011.72;5101721;28;20046;-70
2023/04/18 05:03:44;;;;;;;2.92;2.63;;;;;;;20.23;37.91;103012.56;5107506;27;20043;-70
2023/04/18 05:06:10;;;;;;;3.90;2.83;;;;;;;20.15;38.09;103008.91;5107727;28;20433;-71
2023/04/18 05:08:36;;;;;;;3.10;2.78;;;;;;;20.07;38.22;103012.16;5102420;28;20320;-70
2023/04/18 05:11:02;;;;;;;2.55;2.30;;;;;;;20.14;38.05;103007.22;5106128;28;20486;-71
2023/04/18 05:13:28;;;;;;;3.00;2.70;;;;;;;20.16;38.03;103000.84;5109034;28;20073;-70
2023/04/18 05:15:53;;;;;;;3.78;2.78;;;;;;;20.17;37.93;103023.66;5104439;28;20043;-70
2023/04/18 05:18:19;;;;;;;3.70;2.85;;;;;;;20.12;38.06;103014.44;5103506;28;20066;-70
2023/04/18 05:20:45;;;;;;;3.38;2.50;;;;;;;20.15;37.97;103020.31;5107249;28;20047;-71
2023/04/18 05:23:10;;;;;;;3.83;2.60;;;;;;;20.16;38.02;103016.69;5107192;28;20031;-71
2023/04/18 05:25:36;;;;;;;3.58;2.58;;;;;;;20.14;37.64;103009.88;5106905;27;20040;-71
2023/04/18 05:28:03;;;;;;;3.85;3.00;;;;;;;20.15;38.06;103012.38;5102687;28;20039;-71
2023/04/18 05:30:29;;;;;;;3.88;2.80;;;;;;;20.14;37.81;103008.06;5108149;28;20035;-71
2023/04/18 05:32:55;;;;;;;3.05;2.75;;;;;;;20.14;37.87;103009.88;5108238;28;20066;-71
2023/04/18 05:35:20;;;;;;;2.88;2.55;;;;;;;20.12;38.05;103007.34;5103054;28;20044;-71
2023/04/18 05:37:46;;;;;;;3.75;2.97;;;;;;;20.07;38.07;103011.31;5104955;28;20038;-71
2023/04/18 05:40:12;;;;;;;3.72;2.78;;;;;;;20.10;38.08;103013.72;5109510;28;20055;-71
2023/04/18 05:42:38;;;;;;;3.08;2.63;;;;;;;20.16;37.93;103021.16;5111340;28;20036;-71
2023/04/18 05:45:04;;;;;;;3.60;2.90;;;;;;;20.12;37.94;103025.88;5092428;28;20062;-71
2023/04/18 05:47:29;;;;;;;2.55;2.28;;;;;;;20.13;37.95;103010.84;5111100;28;20047;-70
2023/04/18 05:49:55;;;;;;;4.45;2.92;;;;;;;20.19;37.84;103027.03;5100346;28;20040;-71
2023/04/18 05:52:21;;;;;;;3.22;2.60;;;;;;;20.17;37.58;103017.53;5104066;28;20432;-71
2023/04/18 05:54:46;;;;;;;3.63;2.70;;;;;;;20.09;37.98;103028.75;5093844;28;20027;-71
2023/04/18 05:57:11;;;;;;;3.53;2.45;;;;;;;20.10;37.93;103025.13;5115035;28;20066;-71
2023/04/18 05:59:37;;;;;;;3.63;2.78;;;;;;;20.04;38.12;103030.09;5104766;28;20397;-71
2023/04/18 06:02:02;;;;;;;3.40;2.92;;;;;;;20.12;37.87;103030.31;5102699;28;20129;-71
2023/04/18 06:04:28;;;;;;;3.03;2.58;;;;;;;20.04;38.04;103033.59;5104517;28;20039;-71
2023/04/18 06:06:54;;;;;;;4.50;3.03;;;;;;;20.04;38.07;103027.47;5103620;28;20050;-71
2023/04/18 06:09:19;;;;;;;4.30;2.72;;;;;;;20.07;37.94;103032.50;5105459;28;20063;-71
2023/04/18 06:11:45;;;;;;;3.80;2.65;;;;;;;20.10;37.91;103026.94;5107239;28;20040;-71
2023/04/18 06:14:11;;;;;;;5.28;2.72;;;;;;;20.16;37.77;103031.72;5102169;28;20031;-71
2023/04/18 06:16:36;;;;;;;3.10;2.70;;;;;;;20.09;37.77;103039.31;5105762;28;20040;-71
2023/04/18 06:19:02;;;;;;;4.38;2.90;;;;;;;20.06;37.86;103041.38;5105929;28;20044;-71
2023/04/18 06:21:28;;;;;;;2.78;2.50;;;;;;;20.10;37.76;103040.16;5106144;28;21263;-71
2023/04/18 06:23:53;;;;;;;3.13;2.72;;;;;;;20.08;37.84;103040.28;5099585;28;20047;-71
2023/04/18 06:26:19;;;;;;;9.38;3.00;;;;;;;20.11;37.80;103039.22;5104468;28;20032;-70
2023/04/18 06:28:45;;;;;;;3.92;3.13;;;;;;;20.09;37.76;103046.41;5093298;28;20501;-71
2023/04/18 06:31:10;;;;;;;3.63;3.20;;;;;;;20.09;38.01;103039.31;5114542;27;20043;-71
2023/04/18 06:33:36;;;;;;;3.70;2.85;;;;;;;20.04;37.96;103046.81;5104861;28;20050;-71
2023/04/18 06:36:03;;;;;;;4.38;3.20;;;;;;;20.11;37.82;103041.88;5108556;27;20040;-71
2023/04/18 06:38:29;;;;;;;3.72;2.53;;;;;;;20.19;37.70;103037.59;5106460;28;20469;-71
2023/04/18 06:40:54;;;;;;;4.82;3.13;;;;;;;20.72;36.58;103048.13;5094710;28;20051;-71
2023/04/18 06:43:20;;;;;;;4.53;2.90;;;;;;;21.18;36.01;103052.03;5104980;28;20035;-70
2023/04/18 06:45:46;;;;;;;3.90;2.70;;;;;;;21.49;35.05;103052.00;5104518;27;20036;-76
2023/04/18 06:48:12;;;;;;;4.20;3.00;;;;;;;21.56;34.96;103046.03;5102044;28;20081;-79
2023/04/18 06:50:37;;;;;;;3.42;2.72;;;;;;;21.55;35.16;103056.78;5134703;27;20036;-78
2023/04/18 06:53:03;;;;;;;3.50;3.15;;;;;;;21.51;35.27;103053.53;5131794;27;20386;-79
2023/04/18 06:55:29;;;;;;;4.97;3.55;;;;;;;21.49;35.52;103055.50;5106561;27;20031;-78
2023/04/18 06:57:54;;;;;;;3.60;2.92;;;;;;;21.55;35.25;103044.38;5087820;28;20043;-78
2023/04/18 07:00:20;;;;;;;3.60;2.97;;;;;;;21.49;35.59;103058.16;5114779;27;20042;-78
2023/04/18 07:02:46;;;;;;;3.80;2.85;;;;;;;21.42;35.77;103060.53;5117309;27;20028;-78
2023/04/18 07:05:11;;;;;;;3.95;2.90;;;;;;;21.32;35.71;103059.66;5122152;27;20051;-78
2023/04/18 07:07:37;;;;;;;3.85;3.20;;;;;;;21.25;36.21;103055.03;5101190;28;20027;-78
2023/04/18 07:10:04;;;;;;;3.75;3.03;;;;;;;21.22;36.08;103058.78;5114950;27;20044;-78
2023/04/18 07:12:29;;;;;;;3.58;2.95;;;;;;;21.15;36.21;103052.31;5115305;27;20044;-76
2023/04/18 07:14:55;;;;;;;3.90;3.15;;;;;;;21.13;36.50;103059.56;5102681;27;20073;-78
2023/04/18 07:17:21;;;;;;;4.28;2.92;;;;;;;21.08;36.62;103059.13;5119616;27;20040;-79
2023/04/18 07:19:46;;;;;;;3.80;3.03;;;;;;;21.08;36.45;103057.31;5119814;27;20047;-78
2023/04/18 07:22:11;;;;;;;3.75;3.10;;;;;;;21.04;36.59;103058.56;5104371;28;20032;-78
2023/04/18 07:24:38;;;;;;;3.50;3.00;;;;;;;21.00;36.79;103049.19;5119830;27;20488;-78
2023/04/18 07:27:04;;;;;;;3.20;2.90;;;;;;;21.02;36.73;103055.22;5069724;28;20078;-78
2023/04/18 07:29:30;;;;;;;5.72;3.15;;;;;;;21.04;36.63;103060.38;5130913;27;20024;-78
2023/04/18 07:31:56;;;;;;;3.65;3.20;;;;;;;21.03;36.88;103056.91;5114591;27;20487;-78
2023/04/18 07:34:22;;;;;;;5.00;2.75;;;;;;;21.01;36.86;103065.94;5126281;27;20047;-79
2023/04/18 07:36:48;;;;;;;3.25;2.85;;;;;;;20.98;37.14;103064.38;5112632;27;20059;-79
2023/04/18 07:39:14;;;;;;;4.03;2.97;;;;;;;20.97;37.15;103059.22;5113694;27;20426;-77
2023/04/18 07:41:39;;;;;;;3.10;2.75;;;;;;;20.94;37.19;103056.84;5111669;28;20040;-77
2023/04/18 07:44:05;;;;;;;4.35;2.92;;;;;;;20.80;36.99;103035.03;5095649;28;20136;-73
2023/04/18 07:46:31;;;;;;;4.15;3.30;;;;;;;20.78;37.08;103036.16;5098271;28;20131;-77
2023/04/18 07:48:57;;;;;;;5.60;2.95;;;;;;;20.94;37.28;103057.69;5101728;28;20027;-76
2023/04/18 07:51:25;;;;;;;3.88;2.90;;;;;;;20.93;37.21;103057.81;5113751;27;20054;-74
2023/04/18 07:53:51;;;;;;;3.97;2.67;;;;;;;20.90;37.28;103053.63;5110744;27;20043;-75
2023/04/18 07:56:17;;;;;;;4.97;3.25;;;;;;;20.95;37.27;103058.53;5115056;27;20317;-77
2023/04/18 07:58:43;;;;;;;3.83;3.08;;;;;;;20.95;37.03;103054.06;5116771;28;20036;-77
2023/04/18 08:01:12;;;;;;;4.03;2.90;;;;;;;20.96;37.06;103058.38;5092742;28;20543;-77
2023/04/18 08:03:37;;;;;;;4.57;3.20;;;;;;;20.91;37.36;103060.59;5113873;27;20070;-76
2023/04/18 08:06:04;;;;;;;3.60;2.80;;;;;;;20.97;37.20;103065.34;5108126;27;21247;-77
2023/04/18 08:08:30;;;;;;;4.20;2.97;;;;;;;20.89;37.05;103062.53;5108703;27;20039;-77
2023/04/18 08:10:55;;;;;;;3.47;2.97;;;;;;;20.94;37.22;103062.97;5111446;27;20036;-76
2023/04/18 08:13:21;;;;;;;5.13;3.28;;;;;;;20.95;37.08;103062.00;5110220;27;20050;-76
2023/04/18 08:15:46;;;;;;;4.20;3.00;;;;;;;20.85;37.39;103058.50;5108678;28;20093;-76
2023/04/18 08:18:12;;;;;;;3.78;3.03;;;;;;;20.95;37.11;103072.59;5113772;27;20921;-76
2023/04/18 08:20:37;;;;;;;3.47;2.90;;;;;;;20.92;37.07;103064.09;5106802;27;20101;-76
2023/04/18 08:23:03;;;;;;;4.20;3.00;;;;;;;20.88;37.32;103066.16;5115295;27;20451;-76
2023/04/18 08:25:30;;;;;;;3.58;2.92;;;;;;;20.92;37.37;103059.63;5109828;27;20636;-77
2023/04/18 08:27:56;;;;;;;5.07;3.25;;;;;;;20.91;37.40;103051.81;5107015;28;20054;-76
2023/04/18 08:30:22;;;;;;;3.75;2.97;;;;;;;20.94;37.09;103070.09;5108419;27;20043;-77
2023/04/18 08:32:48;;;;;;;3.47;2.78;;;;;;;20.90;37.19;103063.38;5108977;28;20035;-77
2023/04/18 08:35:14;;;;;;;5.03;3.33;;;;;;;20.92;37.10;103064.94;5113226;28;20032;-74
2023/04/18 08:37:40;;;;;;;6.10;3.25;;;;;;;20.84;37.48;103062.13;5116255;27;20043;-79
2023/04/18 08:40:06;;;;;;;3.60;3.08;;;;;;;20.92;37.18;103066.75;5117794;27;20086;-77
2023/04/18 08:42:32;;;;;;;4.72;3.65;;;;;;;20.92;37.25;103069.38;5106967;27;20039;-77
2023/04/18 08:44:58;;;;;;;3.63;2.80;;;;;;;20.86;37.14;103069.94;5106701;27;20165;-77
2023/04/18 08:47:25;;;;;;;3.55;3.05;;;;;;;20.96;37.06;103066.31;5106207;27;20032;-75
2023/04/18 08:49:52;;;;;;;3.83;3.33;;;;;;;20.93;37.13;103074.53;5101554;28;20028;-78
2023/04/18 08:52:20;;;;;;;5.15;2.80;;;;;;;20.85;37.24;103062.94;5104816;27;20093;-77
2023/04/18 08:54:46;;;;;;;4.35;3.20;;;;;;;20.85;37.28;103068.25;5114839;27;20036;-77
2023/04/18 08:57:22;;;;;;;3.75;2.92;;;;;;;20.90;37.25;103074.81;5110632;27;20109;-77
2023/04/18 08:59:49;;;;;;;3.38;2.75;;;;;;;20.90;37.08;103076.63;5106754;27;20040;-77
2023/04/18 09:02:15;;;;;;;3.80;2.95;;;;;;;20.85;37.24;103063.78;5112082;27;20059;-77
2023/04/18 09:04:47;;;;;;;4.57;3.25;;;;;;;20.89;37.31;103070.50;5111466;27;20647;-77
2023/04/18 09:07:15;;;;;;;4.32;3.13;;;;;;;20.88;37.03;103068.81;5101620;28;20054;-77
2023/04/18 09:09:52;;;;;;;4.18;3.13;;;;;;;20.78;37.46;103055.50;5102316;28;20058;-77
2023/04/18 09:12:21;;;;;;;4.22;2.78;;;;;;;20.87;36.91;103071.59;5112682;27;20031;-77
2023/04/18 09:14:51;;;;;;;3.33;3.03;;;;;;;20.91;36.86;103067.72;5111074;27;20050;-77
2023/04/18 09:17:37;;;;;;;6.35;4.30;;;;;;;20.85;37.25;103066.44;5111329;28;20035;-77
2023/04/18 09:20:04;;;;;;;4.90;3.15;;;;;;;20.85;37.16;103060.31;5108268;28;20151;-77
2023/04/18 09:22:46;;;;;;;4.50;3.08;;;;;;;20.86;36.98;103065.47;5108136;27;20039;-77
2023/04/18 09:25:33;;;;;;;5.28;3.28;;;;;;;20.84;37.03;103063.94;5107773;28;20043;-77
2023/04/18 09:28:01;;;;;;;4.20;3.10;;;;;;;20.80;37.22;103073.91;5115065;27;20055;-77
2023/04/18 09:30:33;;;;;;;4.65;3.17;;;;;;;20.79;37.01;103065.13;5110716;28;20057;-77
2023/04/18 09:33:00;;;;;;;4.72;3.40;;;;;;;20.85;37.31;103069.09;5113359;28;20808;-77
2023/04/18 09:35:26;;;;;;;4.47;3.47;;;;;;;20.81;37.21;103071.13;5111797;28;20034;-77
2023/04/18 09:37:52;;;;;;;3.92;3.05;;;;;;;20.82;37.19;103069.31;5110336;28;20417;-77
2023/04/18 09:40:18;;;;;;;6.78;3.40;;;;;;;20.88;37.05;103071.47;5099838;28;20047;-77
2023/04/18 09:42:45;;;;;;;4.53;2.92;;;;;;;20.84;37.17;103069.22;5113383;28;20047;-77
2023/04/18 09:45:11;;;;;;;5.40;3.17;;;;;;;20.83;37.26;103068.38;5108365;28;20046;-77
2023/04/18 09:47:38;;;;;;;4.10;3.38;;;;;;;20.85;37.07;103076.19;5113502;28;20015;-78
2023/04/18 09:50:06;;;;;;;4.80;3.40;;;;;;;20.91;37.13;103065.91;5113045;28;20055;-77
2023/04/18 09:52:38;;;;;;;4.60;3.47;;;;;;;20.90;37.31;103064.22;5109102;28;20039;-75
2023/04/18 09:55:11;;;;;;;3.83;3.42;;;;;;;20.95;36.91;103054.06;5103729;28;20032;-75
2023/04/18 09:57:41;;;;;;;4.35;3.45;;;;;;;21.00;36.74;103059.78;5111514;28;20027;-78
2023/04/18 10:00:19;;;;;;;4.22;2.90;;;;;;;20.96;37.08;103061.03;5116301;28;20047;-77
2023/04/18 10:03:01;;;;;;;4.57;3.33;;;;;;;20.95;36.93;103059.34;5119642;27;20666;-76
2023/04/18 10:05:32;;;;;;;4.60;3.65;;;;;;;20.96;36.85;103058.38;5110856;28;20047;-77
2023/04/18 10:07:58;;;;;;;4.13;3.10;;;;;;;21.03;36.99;103070.13;5119823;27;20031;-77
2023/04/18 10:10:24;;;;;;;4.60;3.30;;;;;;;21.01;37.05;103058.00;5110539;27;20405;-77
2023/04/18 10:12:53;;;;;;;4.57;3.20;;;;;;;20.96;37.05;103055.72;5117279;27;20059;-76
2023/04/18 10:15:21;;;;;;;4.70;3.97;;;;;;;20.97;37.10;103059.22;5120024;28;20032;-77
2023/04/18 10:18:01;;;;;;;5.22;3.17;;;;;;;20.97;36.98;103054.75;5116391;27;20036;-76
2023/04/18 10:20:27;;;;;;;;;;;;;;;20.98;36.84;103052.94;5097388;28;20036;-76
2023/04/18 10:22:53;;;;;;;3.97;3.47;;;;;;;20.94;36.77;103043.59;5122037;27;20010;-76
2023/04/18 10:25:37;;;;;;;5.47;3.45;;;;;;;20.96;36.81;103044.31;5094615;28;20036;-77
2023/04/18 10:28:07;;;;;;;5.35;3.58;;;;;;;20.99;36.81;103049.31;5109506;27;20043;-76
2023/04/18 10:30:39;;;;;;;4.07;3.13;;;;;;;20.99;36.75;103050.16;5112064;27;20028;-77
2023/04/18 10:33:29;;;;;;;3.95;3.10;;;;;;;21.02;36.51;103046.44;5109767;27;20050;-76
2023/04/18 10:36:11;;;;;;;;;;;;;;;20.93;37.13;103044.56;5107594;27;20038;-76
2023/04/18 10:38:46;;;;;;;5.00;3.63;;;;;;;20.91;36.99;103052.66;5108684;27;19919;-78
2023/04/18 10:41:12;;;;;;;4.25;3.53;;;;;;;20.92;37.00;103046.38;5120733;27;20062;-77
2023/04/18 10:44:10;;;;;;;5.32;3.97;;;;;;;20.93;36.76;103042.75;5113522;27;20103;-79
2023/04/18 10:46:36;;;;;;;4.45;3.20;;;;;;;20.91;36.83;103043.88;5117729;27;20082;-78
2023/04/18 10:49:17;;;;;;;4.15;3.35;;;;;;;20.94;37.08;103044.44;5111433;28;20047;-78
2023/04/18 10:51:44;;;;;;;3.92;2.95;;;;;;;20.96;36.95;103036.34;5112433;27;20040;-78
2023/04/18 10:54:16;;;;;;;4.25;3.38;;;;;;;20.99;36.75;103041.38;5112315;27;20088;-78
2023/04/18 10:56:55;;;;;;;3.58;3.03;;;;;;;20.95;36.66;103038.16;5114102;27;20043;-78
2023/04/18 10:59:25;;;;;;;3.63;3.08;;;;;;;20.89;36.88;103036.06;5114892;27;20073;-77
2023/04/18 11:02:09;;;;;;;4.60;3.00;;;;;;;20.94;37.05;103028.53;5112175;27;20039;-78
2023/04/18 11:04:35;;;;;;;3.70;2.88;;;;;;;20.88;37.02;103034.38;5113668;28;20054;-77
2023/04/18 11:07:00;;;;;;;5.35;2.90;;;;;;;20.92;37.09;103027.84;5102066;28;20044;-77
2023/04/18 11:09:26;;;;;;;5.25;3.20;;;;;;;20.92;36.98;103025.19;5100386;28;20039;-77
2023/04/18 11:12:09;;;;;;;4.25;3.13;;;;;;;20.95;36.81;103022.28;5109449;27;20040;-78
2023/04/18 11:14:50;;;;;;;4.45;3.40;;;;;;;20.94;37.01;103017.94;5111357;27;20081;-78
2023/04/18 11:17:23;;;;;;;4.35;2.97;;;;;;;20.96;36.66;103020.47;5106824;27;20032;-77
2023/04/18 11:19:50;;;;;;;5.35;3.50;;;;;;;20.92;37.02;103019.91;5113801;27;20047;-72
2023/04/18 11:22:16;;;;;;;7.18;3.53;;;;;;;20.97;36.45;103022.97;5107383;27;20213;-76
2023/04/18 11:24:43;;;;;;;7.63;3.70;;;;;;;20.99;36.81;103010.44;5108376;27;20044;-75
2023/04/18 11:27:10;;;;;;;7.05;3.45;;;;;;;20.98;36.82;103010.56;5110583;27;20066;-74
2023/04/18 11:29:36;;;;;;;5.18;3.45;;;;;;;20.99;36.89;103005.13;5110754;27;20389;-75